Portada
METAR-TAF:

METAR-TAF

Aeroports :

Plataforma petroliera

Goeree Le, Països Baixos

latitud: 51-55-33N, longitud: 3-40-12E, altitud: 19 m

Observació

L'informe es va fer fa 33 minuts, a les 13:55 UTC
Vent 18 kt del Nord-Est
Temperatura 6°C
Humitat 56%
Pressió 1030 hPa
Visibilitat 10 km o més

METAR: EHSC 311355Z AUTO 04018KT 9999 ///////// 06/M02 Q1030 W08/H11

Hora: 16:28 (14:28 UTC)


TAF: manca

Observacions i pronòstics meteorològics de més de 4000 aeroports (METAR i TAF).

Les estacions disponibles són els punts grocs i vermells al mapa.

Posi el ratolí al punt desitjat per veure el nom de l'estació.

Feu clic per veure les observacions i els pronòstics meteorològics.

Per canviar el mapa: feu clic els botons verds amb una creu de color negre per apropar; al botó verd amb un guió per allunyar la imatge; o en les fletxes verdes per a mapes adjacents.


METAR-TAF: